sensor_id;sensor_type;location;lat;lon;timestamp;P1;durP1;ratioP1;P2;durP2;ratioP2
73840;SDS011;62183;49.006;12.102;2022-07-23T00:00:59;16.43;;;14.93;;
73840;SDS011;62183;49.006;12.102;2022-07-23T00:03:24;16.53;;;14.87;;
73840;SDS011;62183;49.006;12.102;2022-07-23T00:05:49;16.23;;;14.73;;
73840;SDS011;62183;49.006;12.102;2022-07-23T00:08:15;17.43;;;15.60;;
73840;SDS011;62183;49.006;12.102;2022-07-23T00:10:40;16.90;;;14.57;;
73840;SDS011;62183;49.006;12.102;2022-07-23T00:13:05;16.08;;;14.63;;
73840;SDS011;62183;49.006;12.102;2022-07-23T00:15:30;16.53;;;15.03;;
73840;SDS011;62183;49.006;12.102;2022-07-23T00:17:55;16.17;;;14.77;;
73840;SDS011;62183;49.006;12.102;2022-07-23T00:20:21;15.50;;;14.13;;
73840;SDS011;62183;49.006;12.102;2022-07-23T00:22:49;15.43;;;13.90;;
73840;SDS011;62183;49.006;12.102;2022-07-23T00:25:15;16.38;;;14.73;;
73840;SDS011;62183;49.006;12.102;2022-07-23T00:27:41;16.47;;;14.77;;
73840;SDS011;62183;49.006;12.102;2022-07-23T00:30:06;16.83;;;15.20;;
73840;SDS011;62183;49.006;12.102;2022-07-23T00:32:31;16.48;;;14.90;;
73840;SDS011;62183;49.006;12.102;2022-07-23T00:34:57;15.07;;;13.83;;
73840;SDS011;62183;49.006;12.102;2022-07-23T00:37:22;16.17;;;14.57;;
73840;SDS011;62183;49.006;12.102;2022-07-23T00:39:47;16.63;;;14.93;;
73840;SDS011;62183;49.006;12.102;2022-07-23T00:42:12;15.83;;;14.20;;
73840;SDS011;62183;49.006;12.102;2022-07-23T00:44:37;15.70;;;14.30;;
73840;SDS011;62183;49.006;12.102;2022-07-23T00:47:02;15.43;;;14.07;;
73840;SDS011;62183;49.006;12.102;2022-07-23T00:49:28;15.87;;;14.40;;
73840;SDS011;62183;49.006;12.102;2022-07-23T00:51:54;16.42;;;14.80;;
73840;SDS011;62183;49.006;12.102;2022-07-23T00:54:21;16.35;;;14.85;;
73840;SDS011;62183;49.006;12.102;2022-07-23T00:56:46;16.45;;;14.70;;
73840;SDS011;62183;49.006;12.102;2022-07-23T00:59:12;17.27;;;15.55;;
73840;SDS011;62183;49.006;12.102;2022-07-23T01:01:37;16.77;;;15.20;;
73840;SDS011;62183;49.006;12.102;2022-07-23T01:04:03;16.50;;;15.00;;
73840;SDS011;62183;49.006;12.102;2022-07-23T01:06:28;16.70;;;15.15;;
73840;SDS011;62183;49.006;12.102;2022-07-23T01:08:54;16.52;;;15.02;;
73840;SDS011;62183;49.006;12.102;2022-07-23T01:11:20;16.52;;;15.07;;
73840;SDS011;62183;49.006;12.102;2022-07-23T01:13:46;16.50;;;14.98;;
73840;SDS011;62183;49.006;12.102;2022-07-23T01:16:11;15.90;;;14.50;;
73840;SDS011;62183;49.006;12.102;2022-07-23T01:18:36;16.03;;;14.73;;
73840;SDS011;62183;49.006;12.102;2022-07-23T01:21:01;16.67;;;15.07;;
73840;SDS011;62183;49.006;12.102;2022-07-23T01:23:27;15.93;;;14.63;;
73840;SDS011;62183;49.006;12.102;2022-07-23T01:25:52;16.60;;;15.00;;
73840;SDS011;62183;49.006;12.102;2022-07-23T01:28:18;16.85;;;15.38;;
73840;SDS011;62183;49.006;12.102;2022-07-23T01:30:43;17.07;;;15.40;;
73840;SDS011;62183;49.006;12.102;2022-07-23T01:33:09;16.20;;;14.57;;
73840;SDS011;62183;49.006;12.102;2022-07-23T01:35:34;16.50;;;15.00;;
73840;SDS011;62183;49.006;12.102;2022-07-23T01:37:59;17.37;;;15.63;;
73840;SDS011;62183;49.006;12.102;2022-07-23T01:40:24;16.03;;;14.53;;
73840;SDS011;62183;49.006;12.102;2022-07-23T01:42:49;16.50;;;15.00;;
73840;SDS011;62183;49.006;12.102;2022-07-23T01:45:15;16.63;;;14.70;;
73840;SDS011;62183;49.006;12.102;2022-07-23T01:47:40;14.67;;;13.40;;
73840;SDS011;62183;49.006;12.102;2022-07-23T01:50:05;15.60;;;14.17;;
73840;SDS011;62183;49.006;12.102;2022-07-23T01:52:30;14.70;;;13.50;;
73840;SDS011;62183;49.006;12.102;2022-07-23T01:54:56;15.63;;;14.23;;
73840;SDS011;62183;49.006;12.102;2022-07-23T01:57:21;16.90;;;15.37;;
73840;SDS011;62183;49.006;12.102;2022-07-23T01:59:46;16.30;;;15.00;;
73840;SDS011;62183;49.006;12.102;2022-07-23T02:02:11;14.47;;;13.27;;
73840;SDS011;62183;49.006;12.102;2022-07-23T02:04:36;15.60;;;14.10;;
73840;SDS011;62183;49.006;12.102;2022-07-23T02:07:03;19.10;;;14.70;;
73840;SDS011;62183;49.006;12.102;2022-07-23T02:09:28;15.75;;;14.38;;
73840;SDS011;62183;49.006;12.102;2022-07-23T02:11:53;15.80;;;14.17;;
73840;SDS011;62183;49.006;12.102;2022-07-23T02:14:18;16.60;;;14.87;;
73840;SDS011;62183;49.006;12.102;2022-07-23T02:16:43;16.43;;;14.87;;
73840;SDS011;62183;49.006;12.102;2022-07-23T02:19:09;15.37;;;14.03;;
73840;SDS011;62183;49.006;12.102;2022-07-23T02:21:34;16.20;;;14.80;;
73840;SDS011;62183;49.006;12.102;2022-07-23T02:23:59;16.47;;;14.87;;
73840;SDS011;62183;49.006;12.102;2022-07-23T02:26:24;15.40;;;14.00;;
73840;SDS011;62183;49.006;12.102;2022-07-23T02:28:49;16.07;;;14.57;;
73840;SDS011;62183;49.006;12.102;2022-07-23T02:31:14;16.93;;;15.10;;
73840;SDS011;62183;49.006;12.102;2022-07-23T02:33:40;16.33;;;14.47;;
73840;SDS011;62183;49.006;12.102;2022-07-23T02:36:05;15.87;;;14.13;;
73840;SDS011;62183;49.006;12.102;2022-07-23T02:38:30;15.50;;;14.00;;
73840;SDS011;62183;49.006;12.102;2022-07-23T02:40:55;15.20;;;13.97;;
73840;SDS011;62183;49.006;12.102;2022-07-23T02:43:20;14.70;;;13.40;;
73840;SDS011;62183;49.006;12.102;2022-07-23T02:45:46;14.53;;;13.07;;
73840;SDS011;62183;49.006;12.102;2022-07-23T02:48:11;14.63;;;13.43;;
73840;SDS011;62183;49.006;12.102;2022-07-23T02:50:36;14.80;;;13.27;;
73840;SDS011;62183;49.006;12.102;2022-07-23T02:53:01;14.50;;;13.30;;
73840;SDS011;62183;49.006;12.102;2022-07-23T02:55:26;14.43;;;13.13;;
73840;SDS011;62183;49.006;12.102;2022-07-23T02:57:51;14.07;;;12.87;;
73840;SDS011;62183;49.006;12.102;2022-07-23T03:00:17;14.70;;;13.33;;
73840;SDS011;62183;49.006;12.102;2022-07-23T03:02:42;14.17;;;12.70;;
73840;SDS011;62183;49.006;12.102;2022-07-23T03:05:07;13.40;;;12.40;;
73840;SDS011;62183;49.006;12.102;2022-07-23T03:07:32;14.52;;;13.20;;
73840;SDS011;62183;49.006;12.102;2022-07-23T03:09:58;13.77;;;12.50;;
73840;SDS011;62183;49.006;12.102;2022-07-23T03:12:23;13.67;;;12.40;;
73840;SDS011;62183;49.006;12.102;2022-07-23T03:14:48;13.70;;;12.50;;
73840;SDS011;62183;49.006;12.102;2022-07-23T03:17:13;14.07;;;12.47;;
73840;SDS011;62183;49.006;12.102;2022-07-23T03:19:38;12.80;;;11.60;;
73840;SDS011;62183;49.006;12.102;2022-07-23T03:22:04;12.53;;;11.47;;
73840;SDS011;62183;49.006;12.102;2022-07-23T03:24:29;13.60;;;12.38;;
73840;SDS011;62183;49.006;12.102;2022-07-23T03:26:55;13.10;;;12.07;;
73840;SDS011;62183;49.006;12.102;2022-07-23T03:29:20;13.90;;;12.53;;
73840;SDS011;62183;49.006;12.102;2022-07-23T03:31:45;13.57;;;12.27;;
73840;SDS011;62183;49.006;12.102;2022-07-23T03:34:10;13.50;;;12.20;;
73840;SDS011;62183;49.006;12.102;2022-07-23T03:36:35;14.67;;;12.43;;
73840;SDS011;62183;49.006;12.102;2022-07-23T03:39:00;13.17;;;11.97;;
73840;SDS011;62183;49.006;12.102;2022-07-23T03:41:26;13.67;;;12.30;;
73840;SDS011;62183;49.006;12.102;2022-07-23T03:43:51;13.60;;;12.30;;
73840;SDS011;62183;49.006;12.102;2022-07-23T03:46:16;13.17;;;11.90;;
73840;SDS011;62183;49.006;12.102;2022-07-23T03:48:41;13.73;;;11.80;;
73840;SDS011;62183;49.006;12.102;2022-07-23T03:51:06;13.23;;;12.07;;
73840;SDS011;62183;49.006;12.102;2022-07-23T03:53:32;12.23;;;11.03;;
73840;SDS011;62183;49.006;12.102;2022-07-23T03:55:57;12.77;;;11.40;;
73840;SDS011;62183;49.006;12.102;2022-07-23T03:58:22;11.33;;;10.23;;
73840;SDS011;62183;49.006;12.102;2022-07-23T04:00:47;11.80;;;10.80;;
73840;SDS011;62183;49.006;12.102;2022-07-23T04:03:12;12.07;;;10.97;;
73840;SDS011;62183;49.006;12.102;2022-07-23T04:05:37;11.57;;;10.57;;
73840;SDS011;62183;49.006;12.102;2022-07-23T04:08:03;10.60;;;9.80;;
73840;SDS011;62183;49.006;12.102;2022-07-23T04:10:28;11.35;;;10.25;;
73840;SDS011;62183;49.006;12.102;2022-07-23T04:12:53;10.70;;;9.83;;
73840;SDS011;62183;49.006;12.102;2022-07-23T04:15:18;10.93;;;9.87;;
73840;SDS011;62183;49.006;12.102;2022-07-23T04:17:44;11.13;;;10.23;;
73840;SDS011;62183;49.006;12.102;2022-07-23T04:20:09;11.40;;;9.70;;
73840;SDS011;62183;49.006;12.102;2022-07-23T04:22:35;10.85;;;10.05;;
73840;SDS011;62183;49.006;12.102;2022-07-23T04:25:00;11.03;;;10.10;;
73840;SDS011;62183;49.006;12.102;2022-07-23T04:27:25;11.43;;;10.43;;
73840;SDS011;62183;49.006;12.102;2022-07-23T04:29:50;10.87;;;9.97;;
73840;SDS011;62183;49.006;12.102;2022-07-23T04:32:16;11.80;;;10.60;;
73840;SDS011;62183;49.006;12.102;2022-07-23T04:34:41;11.40;;;10.33;;
73840;SDS011;62183;49.006;12.102;2022-07-23T04:37:06;11.03;;;9.97;;
73840;SDS011;62183;49.006;12.102;2022-07-23T04:39:31;10.67;;;9.87;;
73840;SDS011;62183;49.006;12.102;2022-07-23T04:41:56;10.93;;;9.93;;
73840;SDS011;62183;49.006;12.102;2022-07-23T04:44:21;10.60;;;9.50;;
73840;SDS011;62183;49.006;12.102;2022-07-23T04:46:47;10.53;;;9.63;;
73840;SDS011;62183;49.006;12.102;2022-07-23T04:49:12;10.30;;;9.43;;
73840;SDS011;62183;49.006;12.102;2022-07-23T04:51:37;10.53;;;9.63;;
73840;SDS011;62183;49.006;12.102;2022-07-23T04:54:02;10.83;;;9.83;;
73840;SDS011;62183;49.006;12.102;2022-07-23T04:56:27;10.40;;;9.52;;
73840;SDS011;62183;49.006;12.102;2022-07-23T04:58:53;10.50;;;9.60;;
73840;SDS011;62183;49.006;12.102;2022-07-23T05:01:18;10.73;;;9.93;;
73840;SDS011;62183;49.006;12.102;2022-07-23T05:03:43;10.70;;;9.90;;
73840;SDS011;62183;49.006;12.102;2022-07-23T05:06:08;10.73;;;9.83;;
73840;SDS011;62183;49.006;12.102;2022-07-23T05:08:34;10.70;;;9.75;;
73840;SDS011;62183;49.006;12.102;2022-07-23T05:10:59;11.97;;;10.90;;
73840;SDS011;62183;49.006;12.102;2022-07-23T05:13:24;11.57;;;10.73;;
73840;SDS011;62183;49.006;12.102;2022-07-23T05:15:49;11.40;;;10.50;;
73840;SDS011;62183;49.006;12.102;2022-07-23T05:18:14;11.53;;;10.67;;
73840;SDS011;62183;49.006;12.102;2022-07-23T05:20:40;10.97;;;10.17;;
73840;SDS011;62183;49.006;12.102;2022-07-23T05:23:05;11.30;;;10.43;;
73840;SDS011;62183;49.006;12.102;2022-07-23T05:25:30;11.27;;;10.27;;
73840;SDS011;62183;49.006;12.102;2022-07-23T05:27:55;11.63;;;10.77;;
73840;SDS011;62183;49.006;12.102;2022-07-23T05:30:21;11.20;;;10.30;;
73840;SDS011;62183;49.006;12.102;2022-07-23T05:32:46;10.70;;;9.97;;
73840;SDS011;62183;49.006;12.102;2022-07-23T05:35:11;11.10;;;10.30;;
73840;SDS011;62183;49.006;12.102;2022-07-23T05:37:37;11.95;;;10.85;;
73840;SDS011;62183;49.006;12.102;2022-07-23T05:40:02;11.13;;;10.43;;
73840;SDS011;62183;49.006;12.102;2022-07-23T05:42:27;11.18;;;10.40;;
73840;SDS011;62183;49.006;12.102;2022-07-23T05:44:53;11.70;;;10.90;;
73840;SDS011;62183;49.006;12.102;2022-07-23T05:47:18;11.87;;;10.97;;
73840;SDS011;62183;49.006;12.102;2022-07-23T05:49:43;11.27;;;10.47;;
73840;SDS011;62183;49.006;12.102;2022-07-23T05:52:08;11.63;;;10.60;;
73840;SDS011;62183;49.006;12.102;2022-07-23T05:54:34;11.23;;;10.43;;
73840;SDS011;62183;49.006;12.102;2022-07-23T05:56:59;11.38;;;10.48;;
73840;SDS011;62183;49.006;12.102;2022-07-23T05:59:25;11.90;;;10.77;;
73840;SDS011;62183;49.006;12.102;2022-07-23T06:01:50;11.53;;;10.73;;
73840;SDS011;62183;49.006;12.102;2022-07-23T06:04:15;11.97;;;11.13;;
73840;SDS011;62183;49.006;12.102;2022-07-23T06:06:40;11.83;;;11.00;;
73840;SDS011;62183;49.006;12.102;2022-07-23T06:09:05;11.57;;;10.77;;
73840;SDS011;62183;49.006;12.102;2022-07-23T06:11:31;11.93;;;11.10;;
73840;SDS011;62183;49.006;12.102;2022-07-23T06:13:56;11.93;;;11.13;;
73840;SDS011;62183;49.006;12.102;2022-07-23T06:16:21;13.03;;;12.03;;
73840;SDS011;62183;49.006;12.102;2022-07-23T06:18:46;13.33;;;12.33;;
73840;SDS011;62183;49.006;12.102;2022-07-23T06:21:11;14.00;;;12.90;;
73840;SDS011;62183;49.006;12.102;2022-07-23T06:23:36;13.80;;;12.90;;
73840;SDS011;62183;49.006;12.102;2022-07-23T06:26:02;13.47;;;12.43;;
73840;SDS011;62183;49.006;12.102;2022-07-23T06:28:27;13.70;;;12.70;;
73840;SDS011;62183;49.006;12.102;2022-07-23T06:30:52;12.60;;;11.80;;
73840;SDS011;62183;49.006;12.102;2022-07-23T06:33:17;13.63;;;12.73;;
73840;SDS011;62183;49.006;12.102;2022-07-23T06:35:42;13.87;;;12.87;;
73840;SDS011;62183;49.006;12.102;2022-07-23T06:38:08;13.43;;;12.43;;
73840;SDS011;62183;49.006;12.102;2022-07-23T06:40:33;14.03;;;12.93;;
73840;SDS011;62183;49.006;12.102;2022-07-23T06:42:58;14.23;;;13.32;;
73840;SDS011;62183;49.006;12.102;2022-07-23T06:45:23;13.23;;;12.33;;
73840;SDS011;62183;49.006;12.102;2022-07-23T06:47:48;13.80;;;13.00;;
73840;SDS011;62183;49.006;12.102;2022-07-23T06:50:14;13.87;;;12.97;;
73840;SDS011;62183;49.006;12.102;2022-07-23T06:52:39;14.33;;;13.37;;
73840;SDS011;62183;49.006;12.102;2022-07-23T06:55:04;14.27;;;13.13;;
73840;SDS011;62183;49.006;12.102;2022-07-23T06:57:29;13.95;;;12.88;;
73840;SDS011;62183;49.006;12.102;2022-07-23T06:59:55;14.10;;;13.07;;
73840;SDS011;62183;49.006;12.102;2022-07-23T07:02:20;15.03;;;14.03;;
73840;SDS011;62183;49.006;12.102;2022-07-23T07:04:45;14.73;;;13.93;;
73840;SDS011;62183;49.006;12.102;2022-07-23T07:07:10;15.47;;;14.57;;
73840;SDS011;62183;49.006;12.102;2022-07-23T07:09:35;15.23;;;14.27;;
73840;SDS011;62183;49.006;12.102;2022-07-23T07:12:01;15.60;;;14.40;;
73840;SDS011;62183;49.006;12.102;2022-07-23T07:14:26;15.10;;;14.20;;
73840;SDS011;62183;49.006;12.102;2022-07-23T07:16:51;15.30;;;14.30;;
73840;SDS011;62183;49.006;12.102;2022-07-23T07:19:16;15.13;;;14.17;;
73840;SDS011;62183;49.006;12.102;2022-07-23T07:21:41;15.10;;;14.10;;
73840;SDS011;62183;49.006;12.102;2022-07-23T07:24:07;14.75;;;13.50;;
73840;SDS011;62183;49.006;12.102;2022-07-23T07:26:32;15.02;;;14.13;;
73840;SDS011;62183;49.006;12.102;2022-07-23T07:28:57;14.23;;;13.43;;
73840;SDS011;62183;49.006;12.102;2022-07-23T07:31:22;14.67;;;13.77;;
73840;SDS011;62183;49.006;12.102;2022-07-23T07:33:48;15.13;;;14.03;;
73840;SDS011;62183;49.006;12.102;2022-07-23T07:36:13;14.77;;;13.77;;
73840;SDS011;62183;49.006;12.102;2022-07-23T07:38:38;15.53;;;14.43;;
73840;SDS011;62183;49.006;12.102;2022-07-23T07:41:03;15.63;;;14.63;;
73840;SDS011;62183;49.006;12.102;2022-07-23T07:43:28;16.07;;;15.00;;
73840;SDS011;62183;49.006;12.102;2022-07-23T07:45:53;16.67;;;15.77;;
73840;SDS011;62183;49.006;12.102;2022-07-23T07:48:19;17.33;;;16.33;;
73840;SDS011;62183;49.006;12.102;2022-07-23T07:50:44;17.60;;;16.60;;
73840;SDS011;62183;49.006;12.102;2022-07-23T07:53:09;17.40;;;16.47;;
73840;SDS011;62183;49.006;12.102;2022-07-23T07:55:34;17.92;;;16.92;;
73840;SDS011;62183;49.006;12.102;2022-07-23T07:58:00;17.63;;;16.73;;
73840;SDS011;62183;49.006;12.102;2022-07-23T08:00:25;17.27;;;16.37;;
73840;SDS011;62183;49.006;12.102;2022-07-23T08:02:51;17.20;;;16.30;;
73840;SDS011;62183;49.006;12.102;2022-07-23T08:05:24;17.52;;;16.63;;
73840;SDS011;62183;49.006;12.102;2022-07-23T08:07:49;17.80;;;16.70;;
73840;SDS011;62183;49.006;12.102;2022-07-23T08:10:15;17.70;;;16.58;;
73840;SDS011;62183;49.006;12.102;2022-07-23T08:12:40;16.90;;;15.90;;
73840;SDS011;62183;49.006;12.102;2022-07-23T08:15:06;17.08;;;16.17;;
73840;SDS011;62183;49.006;12.102;2022-07-23T08:17:31;17.08;;;15.95;;
73840;SDS011;62183;49.006;12.102;2022-07-23T08:19:57;16.90;;;16.00;;
73840;SDS011;62183;49.006;12.102;2022-07-23T08:22:22;16.63;;;15.73;;
73840;SDS011;62183;49.006;12.102;2022-07-23T08:24:47;16.00;;;15.10;;
73840;SDS011;62183;49.006;12.102;2022-07-23T08:27:12;15.87;;;14.97;;
73840;SDS011;62183;49.006;12.102;2022-07-23T08:29:37;15.60;;;14.70;;
73840;SDS011;62183;49.006;12.102;2022-07-23T08:32:03;16.03;;;15.13;;
73840;SDS011;62183;49.006;12.102;2022-07-23T08:34:28;15.27;;;14.48;;
73840;SDS011;62183;49.006;12.102;2022-07-23T08:36:53;15.90;;;14.90;;
73840;SDS011;62183;49.006;12.102;2022-07-23T08:39:18;15.23;;;14.17;;
73840;SDS011;62183;49.006;12.102;2022-07-23T08:41:43;14.40;;;13.53;;
73840;SDS011;62183;49.006;12.102;2022-07-23T08:44:09;14.83;;;14.03;;
73840;SDS011;62183;49.006;12.102;2022-07-23T08:46:34;15.07;;;14.20;;
73840;SDS011;62183;49.006;12.102;2022-07-23T08:48:59;15.13;;;14.23;;
73840;SDS011;62183;49.006;12.102;2022-07-23T08:51:25;15.27;;;14.45;;
73840;SDS011;62183;49.006;12.102;2022-07-23T08:53:51;15.77;;;14.75;;
73840;SDS011;62183;49.006;12.102;2022-07-23T08:56:17;15.63;;;14.82;;
73840;SDS011;62183;49.006;12.102;2022-07-23T08:58:42;15.60;;;14.70;;
73840;SDS011;62183;49.006;12.102;2022-07-23T09:01:07;15.87;;;15.07;;
73840;SDS011;62183;49.006;12.102;2022-07-23T09:03:33;15.43;;;14.50;;
73840;SDS011;62183;49.006;12.102;2022-07-23T09:05:59;15.68;;;14.80;;
73840;SDS011;62183;49.006;12.102;2022-07-23T09:08:25;15.88;;;14.88;;
73840;SDS011;62183;49.006;12.102;2022-07-23T09:10:57;15.70;;;14.80;;
73840;SDS011;62183;49.006;12.102;2022-07-23T09:15:48;15.20;;;14.40;;
73840;SDS011;62183;49.006;12.102;2022-07-23T09:18:15;16.17;;;15.27;;
73840;SDS011;62183;49.006;12.102;2022-07-23T09:20:40;15.82;;;15.00;;
73840;SDS011;62183;49.006;12.102;2022-07-23T09:23:05;16.37;;;15.47;;
73840;SDS011;62183;49.006;12.102;2022-07-23T09:25:31;16.00;;;15.10;;
73840;SDS011;62183;49.006;12.102;2022-07-23T09:27:57;15.97;;;15.07;;
73840;SDS011;62183;49.006;12.102;2022-07-23T09:30:23;15.88;;;14.98;;
73840;SDS011;62183;49.006;12.102;2022-07-23T09:35:45;16.90;;;15.80;;
73840;SDS011;62183;49.006;12.102;2022-07-23T09:38:11;16.65;;;15.40;;
73840;SDS011;62183;49.006;12.102;2022-07-23T09:40:36;16.95;;;15.95;;
73840;SDS011;62183;49.006;12.102;2022-07-23T09:43:01;16.77;;;15.80;;
73840;SDS011;62183;49.006;12.102;2022-07-23T09:45:27;18.17;;;17.00;;
73840;SDS011;62183;49.006;12.102;2022-07-23T09:47:55;15.80;;;14.90;;
73840;SDS011;62183;49.006;12.102;2022-07-23T09:50:34;16.33;;;15.43;;
73840;SDS011;62183;49.006;12.102;2022-07-23T09:52:59;16.07;;;15.13;;
73840;SDS011;62183;49.006;12.102;2022-07-23T09:55:30;16.27;;;15.30;;
73840;SDS011;62183;49.006;12.102;2022-07-23T09:57:56;16.90;;;15.80;;
73840;SDS011;62183;49.006;12.102;2022-07-23T10:00:21;17.13;;;16.03;;
73840;SDS011;62183;49.006;12.102;2022-07-23T10:02:47;17.30;;;16.20;;
73840;SDS011;62183;49.006;12.102;2022-07-23T10:05:14;17.52;;;16.45;;
73840;SDS011;62183;49.006;12.102;2022-07-23T10:07:40;17.38;;;16.27;;
73840;SDS011;62183;49.006;12.102;2022-07-23T10:10:06;17.70;;;16.60;;
73840;SDS011;62183;49.006;12.102;2022-07-23T10:12:31;18.75;;;17.45;;
73840;SDS011;62183;49.006;12.102;2022-07-23T10:14:57;18.77;;;17.67;;
73840;SDS011;62183;49.006;12.102;2022-07-23T10:17:22;18.35;;;17.15;;
73840;SDS011;62183;49.006;12.102;2022-07-23T10:19:48;18.30;;;16.90;;
73840;SDS011;62183;49.006;12.102;2022-07-23T10:22:14;18.73;;;17.63;;
73840;SDS011;62183;49.006;12.102;2022-07-23T10:30:05;19.25;;;18.02;;
73840;SDS011;62183;49.006;12.102;2022-07-23T10:39:46;18.73;;;17.63;;
73840;SDS011;62183;49.006;12.102;2022-07-23T10:42:12;19.33;;;18.03;;
73840;SDS011;62183;49.006;12.102;2022-07-23T10:44:42;18.88;;;17.67;;
73840;SDS011;62183;49.006;12.102;2022-07-23T10:47:07;19.65;;;18.35;;
73840;SDS011;62183;49.006;12.102;2022-07-23T10:49:33;19.13;;;17.98;;
73840;SDS011;62183;49.006;12.102;2022-07-23T10:54:46;18.60;;;17.50;;
73840;SDS011;62183;49.006;12.102;2022-07-23T10:57:12;19.85;;;18.55;;
73840;SDS011;62183;49.006;12.102;2022-07-23T11:02:22;19.23;;;18.08;;
73840;SDS011;62183;49.006;12.102;2022-07-23T11:04:48;19.02;;;17.92;;
73840;SDS011;62183;49.006;12.102;2022-07-23T11:07:14;19.50;;;18.33;;
73840;SDS011;62183;49.006;12.102;2022-07-23T11:09:40;19.17;;;18.08;;
73840;SDS011;62183;49.006;12.102;2022-07-23T11:17:21;18.60;;;17.40;;
73840;SDS011;62183;49.006;12.102;2022-07-23T11:25:02;18.73;;;17.63;;
73840;SDS011;62183;49.006;12.102;2022-07-23T11:27:37;18.40;;;17.20;;
73840;SDS011;62183;49.006;12.102;2022-07-23T11:30:02;18.85;;;17.45;;
73840;SDS011;62183;49.006;12.102;2022-07-23T11:32:28;19.20;;;17.70;;
73840;SDS011;62183;49.006;12.102;2022-07-23T11:34:54;18.42;;;17.02;;
73840;SDS011;62183;49.006;12.102;2022-07-23T11:37:53;18.03;;;16.70;;
73840;SDS011;62183;49.006;12.102;2022-07-23T11:42:37;16.92;;;15.52;;
73840;SDS011;62183;49.006;12.102;2022-07-23T11:45:03;16.75;;;15.35;;
73840;SDS011;62183;49.006;12.102;2022-07-23T11:47:28;15.80;;;14.60;;
73840;SDS011;62183;49.006;12.102;2022-07-23T11:49:54;16.67;;;15.13;;
73840;SDS011;62183;49.006;12.102;2022-07-23T11:52:20;15.48;;;14.32;;
73840;SDS011;62183;49.006;12.102;2022-07-23T11:54:53;15.40;;;14.20;;
73840;SDS011;62183;49.006;12.102;2022-07-23T11:57:19;14.85;;;13.75;;
73840;SDS011;62183;49.006;12.102;2022-07-23T11:59:50;14.93;;;13.73;;
73840;SDS011;62183;49.006;12.102;2022-07-23T12:02:16;15.10;;;13.95;;
73840;SDS011;62183;49.006;12.102;2022-07-23T12:04:41;15.70;;;14.37;;
73840;SDS011;62183;49.006;12.102;2022-07-23T12:09:51;15.32;;;14.13;;
73840;SDS011;62183;49.006;12.102;2022-07-23T12:12:16;16.60;;;15.30;;
73840;SDS011;62183;49.006;12.102;2022-07-23T12:14:55;16.50;;;15.20;;
73840;SDS011;62183;49.006;12.102;2022-07-23T12:17:20;16.98;;;15.48;;
73840;SDS011;62183;49.006;12.102;2022-07-23T12:19:46;15.27;;;14.18;;
73840;SDS011;62183;49.006;12.102;2022-07-23T12:22:11;15.77;;;14.57;;
73840;SDS011;62183;49.006;12.102;2022-07-23T12:24:59;16.40;;;15.20;;
73840;SDS011;62183;49.006;12.102;2022-07-23T12:27:25;16.65;;;15.30;;
73840;SDS011;62183;49.006;12.102;2022-07-23T12:29:51;16.30;;;15.10;;
73840;SDS011;62183;49.006;12.102;2022-07-23T12:32:25;16.77;;;15.43;;
73840;SDS011;62183;49.006;12.102;2022-07-23T12:34:53;16.50;;;15.27;;
73840;SDS011;62183;49.006;12.102;2022-07-23T12:37:30;16.33;;;15.20;;
73840;SDS011;62183;49.006;12.102;2022-07-23T12:39:56;17.40;;;16.20;;
73840;SDS011;62183;49.006;12.102;2022-07-23T12:42:21;16.02;;;15.05;;
73840;SDS011;62183;49.006;12.102;2022-07-23T12:47:30;16.42;;;15.32;;
73840;SDS011;62183;49.006;12.102;2022-07-23T12:49:55;16.70;;;15.50;;
73840;SDS011;62183;49.006;12.102;2022-07-23T12:52:20;16.40;;;15.20;;
73840;SDS011;62183;49.006;12.102;2022-07-23T12:54:45;16.67;;;15.47;;
73840;SDS011;62183;49.006;12.102;2022-07-23T12:57:10;17.20;;;16.10;;
73840;SDS011;62183;49.006;12.102;2022-07-23T12:59:35;16.53;;;15.43;;
73840;SDS011;62183;49.006;12.102;2022-07-23T13:02:01;16.83;;;15.73;;
73840;SDS011;62183;49.006;12.102;2022-07-23T13:04:26;17.20;;;16.10;;
73840;SDS011;62183;49.006;12.102;2022-07-23T13:06:58;17.35;;;15.65;;
73840;SDS011;62183;49.006;12.102;2022-07-23T13:09:30;17.10;;;15.90;;
73840;SDS011;62183;49.006;12.102;2022-07-23T13:11:56;16.88;;;15.77;;
73840;SDS011;62183;49.006;12.102;2022-07-23T13:14:21;16.25;;;15.20;;
73840;SDS011;62183;49.006;12.102;2022-07-23T13:16:48;17.63;;;16.42;;
73840;SDS011;62183;49.006;12.102;2022-07-23T13:19:13;16.77;;;15.48;;
73840;SDS011;62183;49.006;12.102;2022-07-23T13:21:39;17.10;;;15.90;;
73840;SDS011;62183;49.006;12.102;2022-07-23T13:24:04;16.00;;;15.00;;
73840;SDS011;62183;49.006;12.102;2022-07-23T13:26:29;16.73;;;15.35;;
73840;SDS011;62183;49.006;12.102;2022-07-23T13:28:55;16.53;;;15.43;;
73840;SDS011;62183;49.006;12.102;2022-07-23T13:31:20;16.77;;;15.67;;
73840;SDS011;62183;49.006;12.102;2022-07-23T13:33:46;16.42;;;15.43;;
73840;SDS011;62183;49.006;12.102;2022-07-23T13:36:11;17.10;;;15.88;;
73840;SDS011;62183;49.006;12.102;2022-07-23T13:38:36;16.73;;;15.73;;
73840;SDS011;62183;49.006;12.102;2022-07-23T13:41:02;16.50;;;15.50;;
73840;SDS011;62183;49.006;12.102;2022-07-23T13:43:27;16.30;;;15.20;;
73840;SDS011;62183;49.006;12.102;2022-07-23T13:45:52;16.27;;;15.27;;
73840;SDS011;62183;49.006;12.102;2022-07-23T13:48:18;16.63;;;15.63;;
73840;SDS011;62183;49.006;12.102;2022-07-23T13:50:43;16.92;;;15.93;;
73840;SDS011;62183;49.006;12.102;2022-07-23T13:53:10;16.33;;;15.27;;
73840;SDS011;62183;49.006;12.102;2022-07-23T13:55:35;16.42;;;15.43;;
73840;SDS011;62183;49.006;12.102;2022-07-23T13:58:01;16.88;;;15.88;;
73840;SDS011;62183;49.006;12.102;2022-07-23T14:00:27;16.80;;;15.80;;
73840;SDS011;62183;49.006;12.102;2022-07-23T14:02:53;16.60;;;15.60;;
73840;SDS011;62183;49.006;12.102;2022-07-23T14:05:18;16.63;;;15.63;;
73840;SDS011;62183;49.006;12.102;2022-07-23T14:07:43;16.95;;;15.85;;
73840;SDS011;62183;49.006;12.102;2022-07-23T14:10:08;15.90;;;14.90;;
73840;SDS011;62183;49.006;12.102;2022-07-23T14:12:34;16.40;;;15.20;;
73840;SDS011;62183;49.006;12.102;2022-07-23T14:14:59;17.08;;;15.90;;
73840;SDS011;62183;49.006;12.102;2022-07-23T14:17:25;16.02;;;15.00;;
73840;SDS011;62183;49.006;12.102;2022-07-23T14:19:50;16.40;;;15.40;;
73840;SDS011;62183;49.006;12.102;2022-07-23T14:22:15;16.27;;;15.27;;
73840;SDS011;62183;49.006;12.102;2022-07-23T14:24:41;16.38;;;15.38;;
73840;SDS011;62183;49.006;12.102;2022-07-23T14:27:06;17.50;;;16.30;;
73840;SDS011;62183;49.006;12.102;2022-07-23T14:29:31;16.45;;;15.45;;
73840;SDS011;62183;49.006;12.102;2022-07-23T14:31:57;16.33;;;15.33;;
73840;SDS011;62183;49.006;12.102;2022-07-23T14:34:22;16.45;;;15.45;;
73840;SDS011;62183;49.006;12.102;2022-07-23T14:36:47;15.83;;;15.00;;
73840;SDS011;62183;49.006;12.102;2022-07-23T14:39:12;15.90;;;15.00;;
73840;SDS011;62183;49.006;12.102;2022-07-23T14:41:38;16.33;;;15.17;;